Mount Holly, New Jersey
Current Conditions -  °F | °C
As of 6:54 AM on Sunday 23 Nov 2014 (Local Time) from KVAY Reporting Station
Overcast Overcast  
Wind Chill:   Ceiling: 11000
Heat Index:   Visibility: 10mi
Dew Point: -5°   Wind: 0mph
Humidity: 51%   Direction: NA
Pressure: 30.23"   Gusts: NA
Location:  39.99°N, 74.79°W
Report Text: KVAY 231154Z AUTO 00000KT 10SM OVC110 04/M05 A3023 RMK AO2 SLP237 T00441050 10061 20033 51008
Loading
Personal Weather Stations






























Interactive Weather Map New forecast layout! Learn more

10-Day Weather Forecast

Advertisements
Track Severe Weather on mobile